sensor_id;sensor_type;location;lat;lon;timestamp;pressure;altitude;pressure_sealevel;temperature;humidity
50103;BME280;35993;52.604;10.078;2023-08-20T00:01:25;101667.19;;;22.07;100.00
50103;BME280;35993;52.604;10.078;2023-08-20T00:03:52;101673.53;;;22.03;100.00
50103;BME280;35993;52.604;10.078;2023-08-20T00:06:18;101683.16;;;21.95;100.00
50103;BME280;35993;52.604;10.078;2023-08-20T00:08:44;101690.06;;;21.92;100.00
50103;BME280;35993;52.604;10.078;2023-08-20T00:11:11;101701.97;;;21.98;100.00
50103;BME280;35993;52.604;10.078;2023-08-20T00:13:39;101692.59;;;22.04;100.00
50103;BME280;35993;52.604;10.078;2023-08-20T00:16:04;101700.06;;;21.99;100.00
50103;BME280;35993;52.604;10.078;2023-08-20T00:18:31;101701.41;;;21.91;100.00
50103;BME280;35993;52.604;10.078;2023-08-20T00:20:57;101697.81;;;21.96;100.00
50103;BME280;35993;52.604;10.078;2023-08-20T00:23:25;101697.00;;;22.00;100.00
50103;BME280;35993;52.604;10.078;2023-08-20T00:25:51;101696.47;;;22.03;100.00
50103;BME280;35993;52.604;10.078;2023-08-20T00:28:20;101700.59;;;22.01;100.00
50103;BME280;35993;52.604;10.078;2023-08-20T00:30:49;101700.84;;;21.94;100.00
50103;BME280;35993;52.604;10.078;2023-08-20T00:33:15;101698.94;;;21.95;100.00
50103;BME280;35993;52.604;10.078;2023-08-20T00:35:41;101711.06;;;21.88;100.00
50103;BME280;35993;52.604;10.078;2023-08-20T00:38:09;101714.91;;;21.82;100.00
50103;BME280;35993;52.604;10.078;2023-08-20T00:40:36;101709.41;;;21.87;100.00
50103;BME280;35993;52.604;10.078;2023-08-20T00:43:01;101703.34;;;21.96;100.00
50103;BME280;35993;52.604;10.078;2023-08-20T00:45:28;101716.91;;;21.97;100.00
50103;BME280;35993;52.604;10.078;2023-08-20T00:47:56;101714.59;;;21.79;100.00
50103;BME280;35993;52.604;10.078;2023-08-20T00:50:22;101712.69;;;21.79;100.00
50103;BME280;35993;52.604;10.078;2023-08-20T00:52:48;101711.47;;;21.65;100.00
50103;BME280;35993;52.604;10.078;2023-08-20T00:55:14;101714.84;;;21.72;100.00
50103;BME280;35993;52.604;10.078;2023-08-20T00:57:41;101714.31;;;21.75;100.00
50103;BME280;35993;52.604;10.078;2023-08-20T01:00:08;101710.72;;;21.74;100.00
50103;BME280;35993;52.604;10.078;2023-08-20T01:02:34;101714.00;;;21.71;100.00
50103;BME280;35993;52.604;10.078;2023-08-20T01:05:01;101709.88;;;21.74;100.00
50103;BME280;35993;52.604;10.078;2023-08-20T01:10:19;101709.63;;;21.75;100.00
50103;BME280;35993;52.604;10.078;2023-08-20T01:12:49;101706.53;;;21.67;100.00
50103;BME280;35993;52.604;10.078;2023-08-20T01:15:17;101711.19;;;21.61;100.00
50103;BME280;35993;52.604;10.078;2023-08-20T01:17:43;101717.84;;;21.65;100.00
50103;BME280;35993;52.604;10.078;2023-08-20T01:20:13;101714.25;;;21.65;100.00
50103;BME280;35993;52.604;10.078;2023-08-20T01:26:08;101725.56;;;21.63;100.00
50103;BME280;35993;52.604;10.078;2023-08-20T01:28:38;101724.19;;;21.60;100.00
50103;BME280;35993;52.604;10.078;2023-08-20T01:31:06;101720.31;;;21.62;100.00
50103;BME280;35993;52.604;10.078;2023-08-20T01:33:33;101720.28;;;21.56;100.00
50103;BME280;35993;52.604;10.078;2023-08-20T01:35:59;101723.00;;;21.51;100.00
50103;BME280;35993;52.604;10.078;2023-08-20T01:38:25;101724.16;;;21.55;100.00
50103;BME280;35993;52.604;10.078;2023-08-20T01:40:50;101726.84;;;21.50;100.00
50103;BME280;35993;52.604;10.078;2023-08-20T01:43:17;101731.53;;;21.44;100.00
50103;BME280;35993;52.604;10.078;2023-08-20T01:45:44;101732.06;;;21.47;100.00
50103;BME280;35993;52.604;10.078;2023-08-20T01:48:11;101725.44;;;21.48;100.00
50103;BME280;35993;52.604;10.078;2023-08-20T01:50:36;101734.00;;;21.46;100.00
50103;BME280;35993;52.604;10.078;2023-08-20T01:53:04;101732.34;;;21.45;100.00
50103;BME280;35993;52.604;10.078;2023-08-20T01:55:30;101736.47;;;21.42;100.00
50103;BME280;35993;52.604;10.078;2023-08-20T01:57:56;101730.00;;;21.32;100.00
50103;BME280;35993;52.604;10.078;2023-08-20T02:00:22;101739.66;;;21.29;100.00
50103;BME280;35993;52.604;10.078;2023-08-20T02:02:47;101743.00;;;21.31;100.00
50103;BME280;35993;52.604;10.078;2023-08-20T02:05:14;101736.41;;;21.32;100.00
50103;BME280;35993;52.604;10.078;2023-08-20T02:07:39;101731.38;;;21.29;100.00
50103;BME280;35993;52.604;10.078;2023-08-20T02:10:08;101733.31;;;21.28;100.00
50103;BME280;35993;52.604;10.078;2023-08-20T02:12:37;101726.66;;;21.24;100.00
50103;BME280;35993;52.604;10.078;2023-08-20T02:15:07;101726.06;;;21.17;100.00
50103;BME280;35993;52.604;10.078;2023-08-20T02:17:34;101721.56;;;21.11;100.00
50103;BME280;35993;52.604;10.078;2023-08-20T02:20:02;101726.25;;;21.05;100.00
50103;BME280;35993;52.604;10.078;2023-08-20T02:22:29;101733.28;;;20.91;100.00
50103;BME280;35993;52.604;10.078;2023-08-20T02:24:56;101726.97;;;20.95;100.00
50103;BME280;35993;52.604;10.078;2023-08-20T02:27:21;101729.72;;;20.95;100.00
50103;BME280;35993;52.604;10.078;2023-08-20T02:29:47;101732.22;;;20.97;100.00
50103;BME280;35993;52.604;10.078;2023-08-20T02:32:16;101731.41;;;20.97;100.00
50103;BME280;35993;52.604;10.078;2023-08-20T02:34:41;101734.69;;;20.93;100.00
50103;BME280;35993;52.604;10.078;2023-08-20T02:37:07;101728.56;;;20.86;100.00
50103;BME280;35993;52.604;10.078;2023-08-20T02:39:32;101725.78;;;20.86;100.00
50103;BME280;35993;52.604;10.078;2023-08-20T02:42:01;101716.94;;;20.84;100.00
50103;BME280;35993;52.604;10.078;2023-08-20T02:44:27;101723.56;;;20.83;100.00
50103;BME280;35993;52.604;10.078;2023-08-20T02:46:54;101722.13;;;20.81;100.00
50103;BME280;35993;52.604;10.078;2023-08-20T02:49:19;101725.44;;;20.77;100.00
50103;BME280;35993;52.604;10.078;2023-08-20T02:51:45;101725.66;;;20.71;100.00
50103;BME280;35993;52.604;10.078;2023-08-20T02:54:10;101722.88;;;20.71;100.00
50103;BME280;35993;52.604;10.078;2023-08-20T02:56:36;101726.97;;;20.68;100.00
50103;BME280;35993;52.604;10.078;2023-08-20T02:59:03;101728.53;;;20.59;100.00
50103;BME280;35993;52.604;10.078;2023-08-20T03:01:30;101733.31;;;20.41;100.00
50103;BME280;35993;52.604;10.078;2023-08-20T03:03:56;101739.53;;;20.32;100.00
50103;BME280;35993;52.604;10.078;2023-08-20T03:06:22;101741.16;;;20.27;100.00
50103;BME280;35993;52.604;10.078;2023-08-20T03:08:48;101743.56;;;20.24;100.00
50103;BME280;35993;52.604;10.078;2023-08-20T03:11:14;101742.56;;;20.30;100.00
50103;BME280;35993;52.604;10.078;2023-08-20T03:13:41;101740.94;;;20.34;100.00
50103;BME280;35993;52.604;10.078;2023-08-20T03:16:06;101749.16;;;20.29;100.00
50103;BME280;35993;52.604;10.078;2023-08-20T03:18:32;101750.16;;;20.23;100.00
50103;BME280;35993;52.604;10.078;2023-08-20T03:20:58;101752.69;;;20.24;100.00
50103;BME280;35993;52.604;10.078;2023-08-20T03:23:24;101760.25;;;20.12;100.00
50103;BME280;35993;52.604;10.078;2023-08-20T03:25:50;101760.94;;;20.02;100.00
50103;BME280;35993;52.604;10.078;2023-08-20T03:28:20;101772.56;;;20.04;100.00
50103;BME280;35993;52.604;10.078;2023-08-20T03:30:48;101768.19;;;20.08;100.00
50103;BME280;35993;52.604;10.078;2023-08-20T03:33:16;101771.97;;;20.02;100.00
50103;BME280;35993;52.604;10.078;2023-08-20T03:35:43;101778.63;;;20.06;100.00
50103;BME280;35993;52.604;10.078;2023-08-20T03:38:08;101774.28;;;20.10;100.00
50103;BME280;35993;52.604;10.078;2023-08-20T03:40:34;101760.66;;;20.21;100.00
50103;BME280;35993;52.604;10.078;2023-08-20T03:42:59;101759.72;;;20.15;100.00
50103;BME280;35993;52.604;10.078;2023-08-20T03:45:26;101756.41;;;20.13;100.00
50103;BME280;35993;52.604;10.078;2023-08-20T03:47:52;101758.56;;;19.89;100.00
50103;BME280;35993;52.604;10.078;2023-08-20T03:50:17;101768.25;;;19.91;100.00
50103;BME280;35993;52.604;10.078;2023-08-20T03:52:44;101771.63;;;19.98;100.00
50103;BME280;35993;52.604;10.078;2023-08-20T03:55:10;101770.00;;;19.97;100.00
50103;BME280;35993;52.604;10.078;2023-08-20T03:57:36;101765.56;;;19.96;100.00
50103;BME280;35993;52.604;10.078;2023-08-20T04:00:01;101764.22;;;19.99;100.00
50103;BME280;35993;52.604;10.078;2023-08-20T04:02:41;101765.63;;;20.02;100.00
50103;BME280;35993;52.604;10.078;2023-08-20T04:05:08;101766.47;;;20.02;100.00
50103;BME280;35993;52.604;10.078;2023-08-20T04:07:37;101768.31;;;19.79;100.00
50103;BME280;35993;52.604;10.078;2023-08-20T04:10:02;101770.34;;;19.67;100.00
50103;BME280;35993;52.604;10.078;2023-08-20T04:12:29;101772.59;;;19.70;100.00
50103;BME280;35993;52.604;10.078;2023-08-20T04:14:57;101782.13;;;19.62;100.00
50103;BME280;35993;52.604;10.078;2023-08-20T04:17:23;101775.72;;;19.57;100.00
50103;BME280;35993;52.604;10.078;2023-08-20T04:19:51;101785.44;;;19.47;100.00
50103;BME280;35993;52.604;10.078;2023-08-20T04:22:17;101790.06;;;19.42;100.00
50103;BME280;35993;52.604;10.078;2023-08-20T04:24:42;101792.97;;;19.35;100.00
50103;BME280;35993;52.604;10.078;2023-08-20T04:27:09;101799.41;;;19.41;100.00
50103;BME280;35993;52.604;10.078;2023-08-20T04:29:37;101794.81;;;19.46;100.00
50103;BME280;35993;52.604;10.078;2023-08-20T04:32:04;101797.97;;;19.55;100.00
50103;BME280;35993;52.604;10.078;2023-08-20T04:34:30;101793.91;;;19.58;100.00
50103;BME280;35993;52.604;10.078;2023-08-20T04:36:58;101805.81;;;19.63;100.00
50103;BME280;35993;52.604;10.078;2023-08-20T04:39:24;101804.75;;;19.64;100.00
50103;BME280;35993;52.604;10.078;2023-08-20T04:41:52;101800.22;;;19.75;100.00
50103;BME280;35993;52.604;10.078;2023-08-20T04:44:19;101801.13;;;19.81;100.00
50103;BME280;35993;52.604;10.078;2023-08-20T04:46:48;101797.91;;;19.84;100.00
50103;BME280;35993;52.604;10.078;2023-08-20T04:49:14;101795.97;;;19.85;100.00
50103;BME280;35993;52.604;10.078;2023-08-20T04:51:40;101798.97;;;19.83;100.00
50103;BME280;35993;52.604;10.078;2023-08-20T04:54:07;101806.97;;;19.85;100.00
50103;BME280;35993;52.604;10.078;2023-08-20T04:56:33;101811.31;;;19.80;100.00
50103;BME280;35993;52.604;10.078;2023-08-20T04:58:59;101806.81;;;19.74;100.00
50103;BME280;35993;52.604;10.078;2023-08-20T05:01:54;101806.72;;;19.69;100.00
50103;BME280;35993;52.604;10.078;2023-08-20T05:04:35;101815.25;;;19.68;100.00
50103;BME280;35993;52.604;10.078;2023-08-20T05:07:01;101812.09;;;19.76;100.00
50103;BME280;35993;52.604;10.078;2023-08-20T05:09:26;101811.81;;;19.77;100.00
50103;BME280;35993;52.604;10.078;2023-08-20T05:11:53;101818.25;;;19.83;100.00
50103;BME280;35993;52.604;10.078;2023-08-20T05:14:19;101817.19;;;19.84;100.00
50103;BME280;35993;52.604;10.078;2023-08-20T05:16:45;101824.44;;;19.90;100.00
50103;BME280;35993;52.604;10.078;2023-08-20T05:19:10;101821.16;;;19.93;100.00
50103;BME280;35993;52.604;10.078;2023-08-20T05:21:36;101823.19;;;19.98;100.00
50103;BME280;35993;52.604;10.078;2023-08-20T05:24:02;101819.97;;;20.06;100.00
50103;BME280;35993;52.604;10.078;2023-08-20T05:26:34;101831.25;;;20.22;100.00
50103;BME280;35993;52.604;10.078;2023-08-20T05:29:00;101829.78;;;20.36;100.00
50103;BME280;35993;52.604;10.078;2023-08-20T05:31:26;101833.03;;;20.33;100.00
50103;BME280;35993;52.604;10.078;2023-08-20T05:33:53;101832.13;;;20.27;100.00
50103;BME280;35993;52.604;10.078;2023-08-20T05:36:18;101837.38;;;20.29;100.00
50103;BME280;35993;52.604;10.078;2023-08-20T05:38:46;101831.44;;;20.37;100.00
50103;BME280;35993;52.604;10.078;2023-08-20T05:41:12;101829.00;;;20.63;100.00
50103;BME280;35993;52.604;10.078;2023-08-20T05:43:37;101831.84;;;20.95;100.00
50103;BME280;35993;52.604;10.078;2023-08-20T05:46:05;101828.75;;;21.14;100.00
50103;BME280;35993;52.604;10.078;2023-08-20T05:48:31;101815.84;;;21.25;100.00
50103;BME280;35993;52.604;10.078;2023-08-20T05:50:57;101808.56;;;21.41;100.00
50103;BME280;35993;52.604;10.078;2023-08-20T05:53:23;101803.63;;;21.48;100.00
50103;BME280;35993;52.604;10.078;2023-08-20T05:55:49;101799.59;;;21.28;100.00
50103;BME280;35993;52.604;10.078;2023-08-20T05:58:15;101805.06;;;21.23;100.00
50103;BME280;35993;52.604;10.078;2023-08-20T06:00:41;101798.88;;;21.11;100.00
50103;BME280;35993;52.604;10.078;2023-08-20T06:03:07;101789.81;;;21.16;100.00
50103;BME280;35993;52.604;10.078;2023-08-20T06:05:35;101789.53;;;21.44;100.00
50103;BME280;35993;52.604;10.078;2023-08-20T06:08:00;101782.00;;;21.72;100.00
50103;BME280;35993;52.604;10.078;2023-08-20T06:10:27;101781.03;;;21.94;100.00
50103;BME280;35993;52.604;10.078;2023-08-20T06:12:57;101786.81;;;21.92;100.00
50103;BME280;35993;52.604;10.078;2023-08-20T06:15:22;101786.34;;;22.06;100.00
50103;BME280;35993;52.604;10.078;2023-08-20T06:17:48;101770.06;;;22.15;100.00
50103;BME280;35993;52.604;10.078;2023-08-20T06:20:14;101764.88;;;22.29;100.00
50103;BME280;35993;52.604;10.078;2023-08-20T06:22:39;101765.97;;;22.33;100.00
50103;BME280;35993;52.604;10.078;2023-08-20T06:25:05;101772.75;;;21.99;100.00
50103;BME280;35993;52.604;10.078;2023-08-20T06:27:34;101775.28;;;21.58;100.00
50103;BME280;35993;52.604;10.078;2023-08-20T06:30:02;101783.84;;;21.56;100.00
50103;BME280;35993;52.604;10.078;2023-08-20T06:32:30;101787.00;;;21.75;100.00
50103;BME280;35993;52.604;10.078;2023-08-20T06:34:57;101790.53;;;21.66;100.00
50103;BME280;35993;52.604;10.078;2023-08-20T06:37:23;101791.34;;;21.66;100.00
50103;BME280;35993;52.604;10.078;2023-08-20T06:39:49;101790.91;;;21.80;100.00
50103;BME280;35993;52.604;10.078;2023-08-20T06:42:14;101785.38;;;21.80;100.00
50103;BME280;35993;52.604;10.078;2023-08-20T06:44:41;101792.94;;;21.95;100.00
50103;BME280;35993;52.604;10.078;2023-08-20T06:47:07;101801.81;;;22.07;100.00
50103;BME280;35993;52.604;10.078;2023-08-20T06:49:32;101799.97;;;22.23;100.00
50103;BME280;35993;52.604;10.078;2023-08-20T06:51:58;101805.97;;;22.09;100.00
50103;BME280;35993;52.604;10.078;2023-08-20T06:54:23;101806.00;;;22.15;100.00
50103;BME280;35993;52.604;10.078;2023-08-20T06:56:49;101812.41;;;22.20;100.00
50103;BME280;35993;52.604;10.078;2023-08-20T06:59:14;101812.75;;;22.34;100.00
50103;BME280;35993;52.604;10.078;2023-08-20T07:01:41;101814.56;;;22.61;100.00
50103;BME280;35993;52.604;10.078;2023-08-20T07:04:07;101811.97;;;22.44;100.00
50103;BME280;35993;52.604;10.078;2023-08-20T07:06:32;101821.72;;;22.57;100.00
50103;BME280;35993;52.604;10.078;2023-08-20T07:08:58;101815.38;;;22.62;100.00
50103;BME280;35993;52.604;10.078;2023-08-20T07:11:24;101809.03;;;22.71;100.00
50103;BME280;35993;52.604;10.078;2023-08-20T07:13:52;101813.72;;;22.66;100.00
50103;BME280;35993;52.604;10.078;2023-08-20T07:16:17;101807.56;;;22.38;100.00
50103;BME280;35993;52.604;10.078;2023-08-20T07:18:43;101806.25;;;22.61;100.00
50103;BME280;35993;52.604;10.078;2023-08-20T07:21:08;101816.78;;;22.74;100.00
50103;BME280;35993;52.604;10.078;2023-08-20T07:23:34;101812.91;;;22.65;100.00
50103;BME280;35993;52.604;10.078;2023-08-20T07:26:10;101814.53;;;22.56;100.00
50103;BME280;35993;52.604;10.078;2023-08-20T07:28:41;101807.97;;;22.83;99.64
50103;BME280;35993;52.604;10.078;2023-08-20T07:31:33;101813.53;;;22.93;98.09
50103;BME280;35993;52.604;10.078;2023-08-20T07:34:00;101810.78;;;23.03;94.51
50103;BME280;35993;52.604;10.078;2023-08-20T07:36:26;101803.56;;;22.97;93.33
50103;BME280;35993;52.604;10.078;2023-08-20T07:38:55;101812.16;;;23.06;92.41
50103;BME280;35993;52.604;10.078;2023-08-20T07:41:22;101808.28;;;23.12;90.93
50103;BME280;35993;52.604;10.078;2023-08-20T07:43:48;101800.84;;;23.44;91.44
50103;BME280;35993;52.604;10.078;2023-08-20T07:46:14;101803.59;;;23.64;89.71
50103;BME280;35993;52.604;10.078;2023-08-20T07:48:40;101797.78;;;23.40;88.83
50103;BME280;35993;52.604;10.078;2023-08-20T07:51:06;101806.38;;;23.33;90.00
50103;BME280;35993;52.604;10.078;2023-08-20T07:53:32;101803.03;;;23.26;88.30
50103;BME280;35993;52.604;10.078;2023-08-20T07:55:59;101799.75;;;23.39;89.13
50103;BME280;35993;52.604;10.078;2023-08-20T07:58:25;101809.72;;;23.35;88.36
50103;BME280;35993;52.604;10.078;2023-08-20T08:00:52;101808.31;;;23.59;86.44
50103;BME280;35993;52.604;10.078;2023-08-20T08:03:18;101812.19;;;23.58;86.35
50103;BME280;35993;52.604;10.078;2023-08-20T08:05:47;101811.06;;;23.69;85.23
50103;BME280;35993;52.604;10.078;2023-08-20T08:08:17;101810.47;;;23.82;86.86
50103;BME280;35993;52.604;10.078;2023-08-20T08:10:44;101807.69;;;23.87;84.83
50103;BME280;35993;52.604;10.078;2023-08-20T08:13:14;101818.00;;;23.92;83.88
50103;BME280;35993;52.604;10.078;2023-08-20T08:15:48;101822.13;;;24.00;83.78
50103;BME280;35993;52.604;10.078;2023-08-20T08:18:14;101815.22;;;23.97;83.11
50103;BME280;35993;52.604;10.078;2023-08-20T08:20:43;101811.34;;;23.93;81.29
50103;BME280;35993;52.604;10.078;2023-08-20T08:23:08;101807.75;;;23.98;78.75
50103;BME280;35993;52.604;10.078;2023-08-20T08:25:34;101814.88;;;24.14;76.78
50103;BME280;35993;52.604;10.078;2023-08-20T08:27:59;101823.19;;;24.14;77.00
50103;BME280;35993;52.604;10.078;2023-08-20T08:30:25;101825.19;;;24.03;77.29
50103;BME280;35993;52.604;10.078;2023-08-20T08:32:52;101832.88;;;24.22;78.67
50103;BME280;35993;52.604;10.078;2023-08-20T08:35:18;101831.25;;;24.16;78.70
50103;BME280;35993;52.604;10.078;2023-08-20T08:37:43;101829.59;;;24.15;77.73
50103;BME280;35993;52.604;10.078;2023-08-20T08:40:09;101820.06;;;24.42;79.01
50103;BME280;35993;52.604;10.078;2023-08-20T08:42:35;101823.13;;;24.40;77.60
50103;BME280;35993;52.604;10.078;2023-08-20T08:45:02;101820.25;;;24.61;75.82
50103;BME280;35993;52.604;10.078;2023-08-20T08:47:29;101822.25;;;24.45;75.59
50103;BME280;35993;52.604;10.078;2023-08-20T08:49:56;101824.97;;;24.55;76.33
50103;BME280;35993;52.604;10.078;2023-08-20T08:52:22;101824.97;;;24.65;74.98
50103;BME280;35993;52.604;10.078;2023-08-20T08:54:48;101828.38;;;24.42;75.27
50103;BME280;35993;52.604;10.078;2023-08-20T08:57:14;101832.50;;;24.49;76.39
50103;BME280;35993;52.604;10.078;2023-08-20T08:59:41;101827.47;;;24.67;75.04
50103;BME280;35993;52.604;10.078;2023-08-20T09:02:11;101825.69;;;24.86;74.62
50103;BME280;35993;52.604;10.078;2023-08-20T09:04:43;101830.34;;;24.96;75.15
50103;BME280;35993;52.604;10.078;2023-08-20T09:07:13;101823.81;;;24.72;75.13
50103;BME280;35993;52.604;10.078;2023-08-20T09:09:43;101828.13;;;24.93;74.78
50103;BME280;35993;52.604;10.078;2023-08-20T09:12:17;101822.38;;;24.79;74.53
50103;BME280;35993;52.604;10.078;2023-08-20T09:14:55;101832.38;;;24.80;75.98
50103;BME280;35993;52.604;10.078;2023-08-20T09:17:25;101828.47;;;24.86;75.44
50103;BME280;35993;52.604;10.078;2023-08-20T09:19:54;101823.72;;;24.87;76.17
50103;BME280;35993;52.604;10.078;2023-08-20T09:22:24;101828.00;;;25.14;74.78
50103;BME280;35993;52.604;10.078;2023-08-20T09:24:56;101827.78;;;25.05;74.30
50103;BME280;35993;52.604;10.078;2023-08-20T09:27:24;101826.31;;;25.18;73.29
50103;BME280;35993;52.604;10.078;2023-08-20T09:29:56;101828.31;;;25.47;72.67
50103;BME280;35993;52.604;10.078;2023-08-20T09:32:27;101816.53;;;25.60;72.65
50103;BME280;35993;52.604;10.078;2023-08-20T09:34:55;101814.31;;;25.87;72.20
50103;BME280;35993;52.604;10.078;2023-08-20T09:37:23;101807.75;;;25.77;71.58
50103;BME280;35993;52.604;10.078;2023-08-20T09:39:50;101801.19;;;25.68;70.34
50103;BME280;35993;52.604;10.078;2023-08-20T09:42:17;101811.75;;;25.66;71.45
50103;BME280;35993;52.604;10.078;2023-08-20T09:44:46;101804.84;;;25.88;72.75
50103;BME280;35993;52.604;10.078;2023-08-20T09:47:12;101808.88;;;26.06;71.68
50103;BME280;35993;52.604;10.078;2023-08-20T09:49:39;101796.06;;;25.75;69.57
50103;BME280;35993;52.604;10.078;2023-08-20T09:52:29;101791.00;;;25.82;69.76
50103;BME280;35993;52.604;10.078;2023-08-20T09:55:08;101795.41;;;25.89;69.65
50103;BME280;35993;52.604;10.078;2023-08-20T09:57:39;101791.56;;;26.09;68.95
50103;BME280;35993;52.604;10.078;2023-08-20T10:00:06;101799.44;;;26.26;68.86
50103;BME280;35993;52.604;10.078;2023-08-20T10:02:46;101793.03;;;26.25;68.43
50103;BME280;35993;52.604;10.078;2023-08-20T10:05:15;101796.19;;;26.19;68.68
50103;BME280;35993;52.604;10.078;2023-08-20T10:07:42;101795.88;;;26.20;69.66
50103;BME280;35993;52.604;10.078;2023-08-20T10:10:09;101788.66;;;26.43;67.84
50103;BME280;35993;52.604;10.078;2023-08-20T10:12:59;101789.31;;;26.35;67.68
50103;BME280;35993;52.604;10.078;2023-08-20T10:15:46;101772.75;;;26.44;64.58
50103;BME280;35993;52.604;10.078;2023-08-20T10:18:13;101767.78;;;26.22;64.27
50103;BME280;35993;52.604;10.078;2023-08-20T10:20:40;101780.75;;;26.50;65.94
50103;BME280;35993;52.604;10.078;2023-08-20T10:23:06;101776.44;;;26.39;64.14
50103;BME280;35993;52.604;10.078;2023-08-20T10:25:40;101778.94;;;26.41;64.80
50103;BME280;35993;52.604;10.078;2023-08-20T10:28:29;101775.47;;;26.49;65.54
50103;BME280;35993;52.604;10.078;2023-08-20T10:31:07;101767.09;;;26.73;63.45
50103;BME280;35993;52.604;10.078;2023-08-20T10:33:37;101774.22;;;26.98;65.11
50103;BME280;35993;52.604;10.078;2023-08-20T10:36:08;101768.94;;;26.97;63.96
50103;BME280;35993;52.604;10.078;2023-08-20T10:38:36;101767.38;;;26.91;64.01
50103;BME280;35993;52.604;10.078;2023-08-20T10:41:05;101764.44;;;27.01;62.04
50103;BME280;35993;52.604;10.078;2023-08-20T10:43:39;101765.47;;;27.05;63.28
50103;BME280;35993;52.604;10.078;2023-08-20T10:49:01;101765.56;;;27.00;62.30
50103;BME280;35993;52.604;10.078;2023-08-20T10:51:32;101773.19;;;26.75;62.87
50103;BME280;35993;52.604;10.078;2023-08-20T10:57:02;101755.88;;;27.30;60.47
50103;BME280;35993;52.604;10.078;2023-08-20T10:59:30;101769.13;;;27.20;61.61
50103;BME280;35993;52.604;10.078;2023-08-20T11:01:58;101768.09;;;27.15;61.67
50103;BME280;35993;52.604;10.078;2023-08-20T11:04:30;101762.03;;;27.27;60.34
50103;BME280;35993;52.604;10.078;2023-08-20T11:07:02;101774.31;;;27.59;60.98
50103;BME280;35993;52.604;10.078;2023-08-20T11:09:32;101745.31;;;27.74;58.15
50103;BME280;35993;52.604;10.078;2023-08-20T11:11:58;101757.69;;;27.54;58.00
50103;BME280;35993;52.604;10.078;2023-08-20T11:14:24;101770.44;;;27.88;59.53
50103;BME280;35993;52.604;10.078;2023-08-20T11:16:51;101760.41;;;28.01;58.02
50103;BME280;35993;52.604;10.078;2023-08-20T11:19:22;101768.78;;;28.01;58.16
50103;BME280;35993;52.604;10.078;2023-08-20T11:21:49;101766.94;;;28.10;56.62
50103;BME280;35993;52.604;10.078;2023-08-20T11:24:29;101772.47;;;27.96;58.34
50103;BME280;35993;52.604;10.078;2023-08-20T11:26:56;101760.19;;;27.84;57.44
50103;BME280;35993;52.604;10.078;2023-08-20T11:29:21;101758.66;;;28.05;56.55
50103;BME280;35993;52.604;10.078;2023-08-20T11:31:49;101779.84;;;28.20;58.27
50103;BME280;35993;52.604;10.078;2023-08-20T11:34:15;101762.16;;;27.97;57.15
50103;BME280;35993;52.604;10.078;2023-08-20T11:36:41;101766.78;;;28.02;57.79
50103;BME280;35993;52.604;10.078;2023-08-20T11:39:08;101761.44;;;28.19;55.67
50103;BME280;35993;52.604;10.078;2023-08-20T11:41:37;101757.94;;;28.27;55.95
50103;BME280;35993;52.604;10.078;2023-08-20T11:44:04;101750.06;;;28.29;54.45
50103;BME280;35993;52.604;10.078;2023-08-20T11:46:44;101755.97;;;28.28;55.84
50103;BME280;35993;52.604;10.078;2023-08-20T11:49:13;101765.53;;;28.50;56.11
50103;BME280;35993;52.604;10.078;2023-08-20T11:51:47;101750.78;;;28.35;53.99
50103;BME280;35993;52.604;10.078;2023-08-20T11:54:16;101758.63;;;28.33;55.12
50103;BME280;35993;52.604;10.078;2023-08-20T11:56:44;101742.41;;;27.66;55.08
50103;BME280;35993;52.604;10.078;2023-08-20T11:59:11;101753.47;;;27.85;56.77
50103;BME280;35993;52.604;10.078;2023-08-20T12:01:41;101742.25;;;28.04;54.12
50103;BME280;35993;52.604;10.078;2023-08-20T12:04:09;101727.13;;;27.91;54.23
50103;BME280;35993;52.604;10.078;2023-08-20T12:06:37;101737.19;;;28.06;54.02
50103;BME280;35993;52.604;10.078;2023-08-20T12:09:22;101738.16;;;28.38;54.00
50103;BME280;35993;52.604;10.078;2023-08-20T12:11:52;101737.50;;;28.55;53.83
50103;BME280;35993;52.604;10.078;2023-08-20T12:14:24;101744.75;;;28.78;53.09
50103;BME280;35993;52.604;10.078;2023-08-20T12:16:53;101741.63;;;28.94;53.28
50103;BME280;35993;52.604;10.078;2023-08-20T12:19:22;101748.56;;;28.46;54.48
50103;BME280;35993;52.604;10.078;2023-08-20T12:21:48;101732.19;;;27.75;53.56
50103;BME280;35993;52.604;10.078;2023-08-20T12:24:15;101741.19;;;27.72;54.63
50103;BME280;35993;52.604;10.078;2023-08-20T12:26:41;101746.03;;;27.80;56.03
50103;BME280;35993;52.604;10.078;2023-08-20T12:29:08;101741.69;;;28.16;54.95
50103;BME280;35993;52.604;10.078;2023-08-20T12:31:35;101739.69;;;28.44;55.38
50103;BME280;35993;52.604;10.078;2023-08-20T12:34:00;101746.19;;;28.67;54.73
50103;BME280;35993;52.604;10.078;2023-08-20T12:36:27;101731.88;;;28.69;53.74
50103;BME280;35993;52.604;10.078;2023-08-20T12:38:53;101741.72;;;28.66;54.39
50103;BME280;35993;52.604;10.078;2023-08-20T12:41:20;101723.81;;;28.90;52.57
50103;BME280;35993;52.604;10.078;2023-08-20T12:43:45;101717.03;;;29.05;51.21
50103;BME280;35993;52.604;10.078;2023-08-20T12:46:12;101732.31;;;29.07;52.88
50103;BME280;35993;52.604;10.078;2023-08-20T12:48:39;101723.13;;;29.07;51.33